createdAt,value
2023-03-14T00:01:33.250Z,97657.25
2023-03-14T00:04:02.652Z,97659.84
2023-03-14T00:06:32.649Z,97657.25
2023-03-14T00:09:01.986Z,97658.78
2023-03-14T00:11:32.205Z,97653.59
2023-03-14T00:14:01.786Z,97669.22
2023-03-14T00:16:32.623Z,97666.09
2023-03-14T00:19:02.487Z,97672.88
2023-03-14T00:21:32.122Z,97655.69
2023-03-14T00:24:01.513Z,97660.63
2023-03-14T00:26:31.014Z,97656.19
2023-03-14T00:29:01.294Z,97664.00
2023-03-14T00:31:32.350Z,97658.78
2023-03-14T00:34:01.864Z,97658.28
2023-03-14T00:36:31.307Z,97657.25
2023-03-14T00:39:00.618Z,97654.38
2023-03-14T00:41:30.015Z,97662.66
2023-03-14T00:43:59.409Z,97655.91
2023-03-14T00:46:30.551Z,97649.91
2023-03-14T00:49:01.288Z,97655.63
2023-03-14T00:51:30.682Z,97638.47
2023-03-14T00:54:00.134Z,97645.50
2023-03-14T00:56:29.874Z,97642.38
2023-03-14T00:58:59.582Z,97643.16
2023-03-14T01:01:29.384Z,97640.56
2023-03-14T01:04:02.683Z,97639.50
2023-03-14T01:06:32.201Z,97645.50
2023-03-14T01:09:02.526Z,97643.16
2023-03-14T01:11:34.461Z,97662.19
2023-03-14T02:09:24.903Z,97558.50
2023-03-14T02:11:55.274Z,97554.28
2023-03-14T02:14:57.102Z,97557.41
2023-03-14T02:17:34.125Z,97544.09
2023-03-14T02:20:37.813Z,97533.38
2023-03-14T02:23:07.937Z,97531.28
2023-03-14T02:25:47.659Z,97542.22
2023-03-14T02:28:19.192Z,97541.44
2023-03-14T02:30:51.293Z,97531.00
2023-03-14T02:33:23.245Z,97529.19
2023-03-14T02:35:57.479Z,97533.06
2023-03-14T02:38:33.742Z,97533.06
2023-03-14T02:41:05.972Z,97529.66
2023-03-14T02:43:41.622Z,97521.38
2023-03-14T02:46:16.639Z,97524.47
2023-03-14T02:48:49.839Z,97515.59
2023-03-14T02:51:20.456Z,97515.09
2023-03-14T02:53:51.146Z,97518.50
2023-03-14T02:56:21.077Z,97502.09
2023-03-14T02:58:52.108Z,97518.25
2023-03-14T03:01:32.678Z,97521.38
2023-03-14T03:04:02.393Z,97522.63
2023-03-14T03:06:31.868Z,97520.03
2023-03-14T03:09:01.405Z,97523.41
2023-03-14T03:11:30.802Z,97502.09
2023-03-14T03:14:01.636Z,97512.50
2023-03-14T03:16:32.024Z,97508.81
2023-03-14T03:19:03.191Z,97499.47
2023-03-14T03:21:32.688Z,97503.91
2023-03-14T03:24:02.167Z,97496.09
2023-03-14T03:26:32.009Z,97490.59
2023-03-14T03:29:03.312Z,97481.25
2023-03-14T03:31:33.079Z,97469.28
2023-03-14T03:34:03.090Z,97463.84
2023-03-14T03:36:33.142Z,97461.53
2023-03-14T03:39:03.495Z,97459.44
2023-03-14T03:41:33.920Z,97464.84
2023-03-14T03:44:07.073Z,97452.88
2023-03-14T03:46:37.002Z,97438.78
2023-03-14T03:49:07.363Z,97433.59
2023-03-14T03:51:37.609Z,97424.50
2023-03-14T03:54:07.709Z,97441.19
2023-03-14T03:56:37.530Z,97425.06
2023-03-14T03:59:08.634Z,97418.31
2023-03-14T04:01:38.505Z,97437.63
2023-03-14T04:04:09.083Z,97438.19
2023-03-14T04:06:41.418Z,97438.47
2023-03-14T04:09:11.975Z,97434.28
2023-03-14T04:11:47.318Z,97441.63
2023-03-14T04:14:24.466Z,97441.63
2023-03-14T04:17:29.436Z,97447.09
2023-03-14T04:19:59.626Z,97448.66
2023-03-14T04:22:37.539Z,97446.31
2023-03-14T04:25:09.707Z,97432.28
2023-03-14T04:27:45.158Z,97435.63
2023-03-14T04:30:29.525Z,97434.56
2023-03-14T04:33:06.420Z,97433.03
2023-03-14T04:35:39.360Z,97428.59
2023-03-14T04:38:13.454Z,97428.88
2023-03-14T04:40:46.612Z,97427.34
2023-03-14T04:43:17.613Z,97432.28
2023-03-14T04:45:59.941Z,97428.09
2023-03-14T04:48:31.120Z,97430.69
2023-03-14T04:51:02.366Z,97426.56
2023-03-14T04:53:37.013Z,97425.50
2023-03-14T04:56:11.740Z,97408.31
2023-03-14T04:58:43.908Z,97409.88
2023-03-14T05:01:15.767Z,97406.50
2023-03-14T05:04:13.664Z,97406.50
2023-03-14T05:06:54.028Z,97403.63
2023-03-14T05:09:32.824Z,97397.63
2023-03-14T05:12:25.663Z,97397.63
2023-03-14T05:15:05.784Z,97400.50
2023-03-14T05:17:54.123Z,97401.31
2023-03-14T05:20:44.292Z,97392.72
2023-03-14T05:23:23.602Z,97402.06
2023-03-14T05:26:32.288Z,97391.91
2023-03-14T05:29:28.464Z,97391.44
2023-03-14T05:32:14.044Z,97390.16
2023-03-14T05:35:12.368Z,97382.66
2023-03-14T05:38:01.211Z,97380.34
2023-03-14T05:41:00.185Z,97380.63
2023-03-14T05:44:05.411Z,97390.03
2023-03-14T05:46:58.291Z,97381.16
2023-03-14T05:49:39.673Z,97385.31
2023-03-14T05:52:36.628Z,97379.59
2023-03-14T05:55:08.456Z,97372.59
2023-03-14T05:58:01.741Z,97385.88
2023-03-14T06:00:51.948Z,97387.41
2023-03-14T06:03:35.135Z,97378.06
2023-03-14T06:06:05.466Z,97369.19
2023-03-14T06:08:36.844Z,97375.47
2023-03-14T06:11:08.164Z,97383.28
2023-03-14T06:13:38.527Z,97373.13
2023-03-14T06:16:09.846Z,97383.28
2023-03-14T06:18:39.833Z,97379.59
2023-03-14T06:21:11.737Z,97366.59
2023-03-14T06:23:43.377Z,97373.84
2023-03-14T06:26:13.969Z,97373.84
2023-03-14T06:28:44.053Z,97373.84
2023-03-14T06:31:13.987Z,97374.63
2023-03-14T06:33:55.870Z,97373.56
2023-03-14T06:36:30.107Z,97357.47
2023-03-14T06:39:02.586Z,97353.81
2023-03-14T06:41:34.709Z,97361.88
2023-03-14T06:44:05.474Z,97362.41
2023-03-14T06:46:36.114Z,97360.53
2023-03-14T06:49:06.524Z,97361.59
2023-03-14T06:51:37.206Z,97361.31
2023-03-14T06:54:10.473Z,97368.84
2023-03-14T06:56:40.404Z,97368.78
2023-03-14T06:59:10.599Z,97364.06
2023-03-14T07:01:41.320Z,97362.72
2023-03-14T07:04:14.363Z,97361.19
2023-03-14T07:06:48.885Z,97363.78
2023-03-14T07:09:20.390Z,97357.50
2023-03-14T07:11:56.053Z,97358.00
2023-03-14T07:14:26.798Z,97351.75
2023-03-14T07:16:57.173Z,97357.47
2023-03-14T07:19:27.243Z,97360.06
2023-03-14T07:21:56.934Z,97362.66
2023-03-14T07:24:31.386Z,97356.38
2023-03-14T07:27:01.156Z,97351.19
2023-03-14T07:29:30.997Z,97337.66
2023-03-14T07:32:01.978Z,97343.94
2023-03-14T07:34:31.864Z,97348.06
2023-03-14T07:37:01.566Z,97342.88
2023-03-14T07:39:33.270Z,97346.81
2023-03-14T07:42:08.182Z,97362.72
2023-03-14T07:44:52.322Z,97371.59
2023-03-14T07:47:22.104Z,97357.50
2023-03-14T07:49:53.860Z,97373.13
2023-03-14T07:52:32.833Z,97378.56
2023-03-14T07:55:06.886Z,97372.84
2023-03-14T07:57:37.115Z,97377.78
2023-03-14T08:00:09.362Z,97375.97
2023-03-14T09:27:13.054Z,97370.16
2023-03-14T09:29:42.310Z,97396.13
2023-03-14T09:32:11.298Z,97389.03
2023-03-14T09:34:40.323Z,97400.94
2023-03-14T09:37:09.292Z,97394.66
2023-03-14T09:39:41.398Z,97401.13
2023-03-14T09:42:16.660Z,97388.59
2023-03-14T09:44:56.412Z,97381.56
2023-03-14T09:47:26.736Z,97396.91
2023-03-14T09:49:56.195Z,97396.63
2023-03-14T09:52:31.631Z,97405.19
2023-03-14T09:55:05.747Z,97408.88
2023-03-14T09:57:38.620Z,97413.28
2023-03-14T10:00:17.656Z,97399.97
2023-03-14T10:02:53.490Z,97403.66
2023-03-14T10:05:25.769Z,97407.81
2023-03-14T10:07:54.756Z,97401.56
2023-03-14T10:10:27.126Z,97404.91
2023-03-14T10:13:00.830Z,97409.06
2023-03-14T10:15:35.405Z,97416.13
2023-03-14T10:18:11.035Z,97412.72
2023-03-14T10:20:42.847Z,97412.72
2023-03-14T10:23:29.357Z,97412.72
2023-03-14T10:26:08.328Z,97411.97
2023-03-14T10:28:47.663Z,97421.63
2023-03-14T10:31:17.876Z,97411.66
2023-03-14T10:34:01.572Z,97403.09
2023-03-14T10:36:32.219Z,97404.91
2023-03-14T10:39:25.677Z,97403.66
2023-03-14T10:41:59.914Z,97409.94
2023-03-14T10:44:31.119Z,97399.81
2023-03-14T10:47:03.993Z,97403.72
2023-03-14T10:49:35.376Z,97400.09
2023-03-14T10:52:17.569Z,97405.75
2023-03-14T10:54:50.757Z,97405.75
2023-03-14T10:57:22.728Z,97404.22
2023-03-14T10:59:54.438Z,97413.09
2023-03-14T11:02:49.400Z,97397.75
2023-03-14T11:05:31.337Z,97407.41
2023-03-14T11:08:07.008Z,97408.75
2023-03-14T11:10:38.653Z,97410.09
2023-03-14T11:13:18.869Z,97407.00
2023-03-14T11:16:00.747Z,97410.13
2023-03-14T11:19:35.835Z,97419.56
2023-03-14T11:22:20.638Z,97429.78
2023-03-14T11:25:09.917Z,97421.75
2023-03-14T11:27:45.715Z,97424.66
2023-03-14T11:30:26.612Z,97420.78
2023-03-14T11:33:07.778Z,97416.63
2023-03-14T11:35:46.391Z,97422.59
2023-03-14T11:38:26.943Z,97438.50
2023-03-14T11:40:58.896Z,97441.19
2023-03-14T11:43:33.137Z,97440.69
2023-03-14T11:46:09.887Z,97441.25
2023-03-14T11:48:46.958Z,97442.59
2023-03-14T11:51:24.312Z,97446.53
2023-03-14T11:54:06.145Z,97456.44
2023-03-14T11:56:41.058Z,97449.19
2023-03-14T11:59:19.240Z,97460.44
2023-03-14T12:01:57.082Z,97477.41
2023-03-14T12:04:48.031Z,97479.31
2023-03-14T12:07:25.012Z,97506.69
2023-03-14T12:09:56.133Z,97517.09
2023-03-14T12:12:27.902Z,97523.84
2023-03-14T12:14:59.958Z,97537.38
2023-03-14T12:17:37.986Z,97547.00
2023-03-14T12:20:20.220Z,97553.75
2023-03-14T12:22:51.604Z,97566.47
2023-03-14T12:25:23.348Z,97580.00
2023-03-14T12:28:21.704Z,97589.44
2023-03-14T12:30:50.805Z,97587.84
2023-03-14T12:33:33.678Z,97610.81
2023-03-14T12:36:32.305Z,97624.63
2023-03-14T12:39:18.379Z,97655.66
2023-03-14T12:41:53.883Z,97665.28
2023-03-14T12:44:42.640Z,97675.97
2023-03-14T12:47:53.156Z,97676.78
2023-03-14T12:50:28.687Z,97674.69
2023-03-14T12:53:49.532Z,97685.66
2023-03-14T12:56:27.155Z,97695.28
2023-03-14T12:59:32.861Z,97686.97
2023-03-14T13:02:25.540Z,97683.59
2023-03-14T13:05:04.851Z,97692.94
2023-03-14T13:08:08.466Z,97686.47
2023-03-14T13:10:50.452Z,97692.72
2023-03-14T13:13:26.743Z,97711.22
2023-03-14T13:16:01.211Z,97724.50
2023-03-14T13:18:37.556Z,97737.00
2023-03-14T13:21:13.258Z,97763.00
2023-03-14T13:23:57.033Z,97758.88
2023-03-14T13:26:35.034Z,97758.09
2023-03-14T13:29:16.681Z,97776.56
2023-03-14T13:31:47.582Z,97764.34
2023-03-14T13:34:17.582Z,97800.78
2023-03-14T13:36:47.041Z,97766.94
2023-03-14T13:39:23.101Z,97824.47
2023-03-14T13:41:52.689Z,97829.66
2023-03-14T13:44:29.667Z,97835.13
2023-03-14T13:47:02.283Z,97857.28
2023-03-14T13:49:36.547Z,97870.28
2023-03-14T13:52:24.172Z,97887.47
2023-03-14T13:54:57.952Z,97885.91
2023-03-14T13:57:28.326Z,97920.28
2023-03-14T14:00:10.136Z,97934.31
2023-03-14T14:02:40.266Z,97946.81
2023-03-14T14:05:13.723Z,97955.66
2023-03-14T14:07:45.290Z,97968.16
2023-03-14T14:10:16.922Z,97966.09
2023-03-14T14:12:51.199Z,97985.84
2023-03-14T14:15:24.260Z,97983.25
2023-03-14T14:17:55.742Z,97991.81
2023-03-14T14:20:32.792Z,97989.00
2023-03-14T14:23:04.196Z,97999.13
2023-03-14T14:25:35.554Z,97991.59
2023-03-14T14:28:18.041Z,97981.19
2023-03-14T14:30:49.294Z,97991.84
2023-03-14T14:33:23.535Z,98011.91
2023-03-14T14:35:57.221Z,98016.03
2023-03-14T14:38:27.052Z,98036.06
2023-03-14T14:41:03.911Z,98036.06
2023-03-14T14:43:38.110Z,98032.16
2023-03-14T14:46:10.492Z,98058.16
2023-03-14T14:48:40.384Z,98065.47
2023-03-14T14:51:10.205Z,98079.22
2023-03-14T14:53:41.345Z,98073.00
2023-03-14T14:56:23.307Z,98071.97
2023-03-14T14:58:59.545Z,98094.56
2023-03-14T15:01:35.473Z,98113.81
2023-03-14T15:04:06.722Z,98103.69
2023-03-14T15:06:35.820Z,98112.28
2023-03-14T15:09:07.865Z,98105.50
2023-03-14T15:11:40.564Z,98118.00
2023-03-14T15:14:09.577Z,98127.84
2023-03-14T15:16:38.660Z,98126.31
2023-03-14T15:19:24.025Z,98130.47
2023-03-14T15:21:54.999Z,98135.16
2023-03-14T15:24:24.448Z,98140.34
2023-03-14T15:26:54.898Z,98151.78
2023-03-14T15:29:23.920Z,98160.09
2023-03-14T15:31:52.928Z,98153.06
2023-03-14T15:34:21.966Z,98165.28
2023-03-14T15:36:51.002Z,98162.94
2023-03-14T15:39:20.017Z,98162.19
2023-03-14T15:41:49.052Z,98166.34
2023-03-14T15:44:19.428Z,98166.34
2023-03-14T15:46:48.464Z,98185.06
2023-03-14T15:49:17.506Z,98181.16
2023-03-14T15:51:46.565Z,98178.31
2023-03-14T15:54:15.568Z,98184.00
2023-03-14T15:56:44.610Z,98187.66
2023-03-14T15:59:13.625Z,98195.47
2023-03-14T16:01:49.031Z,98194.97
2023-03-14T16:04:18.624Z,98198.56
2023-03-14T16:06:48.112Z,98205.34
2023-03-14T16:09:17.120Z,98213.66
2023-03-14T16:11:47.363Z,98215.22
2023-03-14T16:14:19.365Z,98222.50
2023-03-14T16:16:49.842Z,98224.84
2023-03-14T16:19:18.924Z,98239.16
2023-03-14T16:21:48.544Z,98235.28
2023-03-14T16:24:18.094Z,98235.53
2023-03-14T16:26:47.288Z,98230.06
2023-03-14T16:29:19.278Z,98237.38
2023-03-14T16:31:52.470Z,98238.16
2023-03-14T16:34:21.488Z,98242.84
2023-03-14T16:36:52.071Z,98242.31
2023-03-14T16:39:21.667Z,98252.22
2023-03-14T16:41:57.268Z,98258.78
2023-03-14T16:44:28.156Z,98258.50
2023-03-14T16:46:58.533Z,98260.06
2023-03-14T16:49:27.566Z,98273.59
2023-03-14T16:51:58.820Z,98276.72
2023-03-14T16:54:28.061Z,98279.84
2023-03-14T16:56:57.123Z,98282.19
2023-03-14T16:59:28.869Z,98290.50
2023-03-14T17:01:59.313Z,98291.31
2023-03-14T17:04:29.072Z,98306.91
2023-03-14T17:06:58.760Z,98299.63
2023-03-14T17:09:58.015Z,98303.81
2023-03-14T17:12:27.632Z,98308.75
2023-03-14T17:14:57.972Z,98305.91
2023-03-14T17:17:28.961Z,98311.09
2023-03-14T17:21:31.227Z,98319.66
2023-03-14T17:24:02.419Z,98322.53
2023-03-14T17:26:31.908Z,98345.44
2023-03-14T17:29:01.416Z,98339.72
2023-03-14T17:31:31.043Z,98356.91
2023-03-14T17:34:01.995Z,98364.44
2023-03-14T17:36:32.814Z,98364.19
2023-03-14T17:39:34.576Z,98368.88
2023-03-14T17:42:04.477Z,98381.13
2023-03-14T17:44:34.882Z,98380.06
2023-03-14T17:47:04.468Z,98395.69
2023-03-14T17:50:09.066Z,98406.09
2023-03-14T17:52:39.348Z,98406.09
2023-03-14T17:55:10.371Z,98414.69
2023-03-14T18:30:34.563Z,98517.44
2023-03-14T18:33:04.064Z,98525.28
2023-03-14T18:35:33.641Z,98526.84
2023-03-14T18:38:03.066Z,98539.34
2023-03-14T18:40:32.525Z,98538.84
2023-03-14T18:43:01.895Z,98553.91
2023-03-14T18:45:33.647Z,98559.13
2023-03-14T18:48:03.139Z,98558.09
2023-03-14T18:50:32.800Z,98559.66
2023-03-14T18:53:03.246Z,98566.94
2023-03-14T18:55:34.343Z,98566.41
2023-03-14T18:58:03.918Z,98578.88
2023-03-14T19:00:36.379Z,98581.72
2023-03-14T19:07:50.906Z,98595.94
2023-03-14T19:10:21.187Z,98592.81
2023-03-14T19:14:19.906Z,98609.91
2023-03-14T19:16:51.004Z,98608.56
2023-03-14T19:19:21.279Z,98624.16
2023-03-14T19:21:57.744Z,98627.53
2023-03-14T19:24:35.195Z,98627.78
2023-03-14T19:27:06.962Z,98626.47
2023-03-14T19:34:02.553Z,98648.19
2023-03-14T19:37:49.607Z,98674.69
2023-03-14T19:40:19.546Z,98675.97
2023-03-14T19:43:04.944Z,98674.13
2023-03-14T19:45:37.146Z,98682.97
2023-03-14T19:48:09.921Z,98681.41
2023-03-14T19:55:35.598Z,98706.44
2023-03-14T19:58:06.500Z,98711.63
2023-03-14T20:00:36.228Z,98716.03
2023-03-14T20:03:31.689Z,98730.31
2023-03-14T20:06:05.466Z,98721.97
2023-03-14T20:08:35.488Z,98733.63
2023-03-14T20:11:08.681Z,98738.81
2023-03-14T20:13:38.789Z,98747.09
2023-03-14T20:16:11.812Z,98751.75
2023-03-14T20:18:42.791Z,98774.13
2023-03-14T20:21:14.375Z,98768.34
2023-03-14T20:23:44.968Z,98777.19
2023-03-14T20:26:17.440Z,98786.78
2023-03-14T20:28:47.433Z,98793.81
2023-03-14T20:31:17.111Z,98801.03
2023-03-14T20:33:49.709Z,98798.91
2023-03-14T20:36:22.080Z,98801.75
2023-03-14T20:38:51.623Z,98816.34
2023-03-14T20:41:23.282Z,98820.19
2023-03-14T20:43:53.372Z,98834.66
2023-03-14T20:46:50.651Z,98840.56
2023-03-14T20:49:44.822Z,98845.97
2023-03-14T20:52:17.636Z,98848.75
2023-03-14T20:55:11.356Z,98847.09
2023-03-14T20:57:44.517Z,98852.75
2023-03-14T21:00:36.838Z,98865.66
2023-03-14T21:03:14.684Z,98876.97
2023-03-14T21:05:45.332Z,98882.34
2023-03-14T21:08:15.229Z,98894.41
2023-03-14T21:10:45.014Z,98866.59
2023-03-14T21:13:16.324Z,98892.78
2023-03-14T21:15:46.524Z,98880.50
2023-03-14T21:18:16.421Z,98882.53
2023-03-14T21:20:49.356Z,98882.44
2023-03-14T21:24:06.765Z,98884.41
2023-03-14T21:27:25.722Z,98892.06
2023-03-14T21:34:26.871Z,98923.03
2023-03-14T21:36:56.735Z,98961.16
2023-03-14T21:39:33.025Z,98955.97
2023-03-14T21:42:02.661Z,98944.22
2023-03-14T21:44:37.416Z,98946.81
2023-03-14T21:47:08.321Z,98960.81
2023-03-14T21:49:39.564Z,98954.88
2023-03-14T21:52:12.269Z,98954.28
2023-03-14T21:54:44.066Z,98945.16
2023-03-14T21:57:40.533Z,98961.97
2023-03-14T22:00:22.131Z,98963.78
2023-03-14T22:03:11.695Z,98972.00
2023-03-14T22:05:46.236Z,98965.25
2023-03-14T22:08:22.800Z,98969.66
2023-03-14T22:10:53.963Z,98971.44
2023-03-14T22:13:26.069Z,98968.31
2023-03-14T22:16:35.202Z,98969.56
2023-03-14T22:19:13.358Z,98974.41
2023-03-14T22:21:49.235Z,98974.06
2023-03-14T22:24:22.090Z,98990.88
2023-03-14T22:26:55.882Z,98986.94
2023-03-14T22:29:42.573Z,99002.13
2023-03-14T22:32:15.761Z,99006.19
2023-03-14T22:34:57.379Z,99009.00
2023-03-14T22:37:31.488Z,99015.41
2023-03-14T22:40:01.229Z,98995.13
2023-03-14T22:42:32.172Z,99012.25
2023-03-14T22:46:18.058Z,99018.34
2023-03-14T22:50:04.916Z,99023.63
2023-03-14T22:52:51.814Z,99037.41
2023-03-14T22:55:21.345Z,99045.97
2023-03-14T22:57:54.227Z,99039.97
2023-03-14T23:05:12.327Z,99064.19
2023-03-14T23:07:42.045Z,99063.97
2023-03-14T23:10:14.137Z,99067.16
2023-03-14T23:12:45.326Z,99079.09
2023-03-14T23:15:29.348Z,99073.69
2023-03-14T23:18:11.353Z,99072.13
2023-03-14T23:20:41.050Z,99084.28
2023-03-14T23:23:13.750Z,99079.09
2023-03-14T23:25:53.276Z,99080.34
2023-03-14T23:28:23.843Z,99086.66
2023-03-14T23:31:10.391Z,99099.81
2023-03-14T23:33:40.041Z,99105.81
2023-03-14T23:36:13.531Z,99108.41
2023-03-14T23:39:21.301Z,99108.03
2023-03-14T23:41:52.334Z,99098.34
2023-03-14T23:44:23.188Z,99132.59
2023-03-14T23:47:10.971Z,99114.91
2023-03-14T23:50:31.546Z,99127.75
2023-03-14T23:53:17.157Z,99129.19
2023-03-14T23:55:47.043Z,99149.69
2023-03-14T23:58:21.620Z,99143.16
